createdAt,value
2022-08-30T00:01:04.729Z,8.52
2022-08-30T00:03:47.029Z,8.07
2022-08-30T00:06:18.543Z,9.50
2022-08-30T00:08:50.356Z,10.97
2022-08-30T00:11:23.242Z,7.30
2022-08-30T00:13:54.667Z,7.07
2022-08-30T00:16:25.375Z,9.48
2022-08-30T00:18:54.991Z,9.27
2022-08-30T00:21:25.480Z,7.67
2022-08-30T00:23:55.107Z,8.82
2022-08-30T00:26:24.435Z,9.65
2022-08-30T00:28:53.797Z,9.38
2022-08-30T00:31:23.200Z,10.60
2022-08-30T00:33:52.510Z,11.67
2022-08-30T00:36:22.450Z,10.40
2022-08-30T00:38:51.742Z,11.45
2022-08-30T00:41:21.202Z,9.82
2022-08-30T00:43:50.496Z,10.00
2022-08-30T00:46:20.068Z,9.57
2022-08-30T00:48:52.083Z,7.90
2022-08-30T00:51:22.722Z,13.45
2022-08-30T00:53:56.321Z,9.80
2022-08-30T00:56:27.003Z,10.63
2022-08-30T00:58:59.178Z,10.47
2022-08-30T01:01:30.591Z,10.05
2022-08-30T01:04:03.529Z,10.18
2022-08-30T01:06:35.438Z,11.40
2022-08-30T01:09:06.124Z,11.57
2022-08-30T01:11:36.976Z,9.83
2022-08-30T01:14:07.211Z,10.95
2022-08-30T01:16:39.346Z,12.63
2022-08-30T01:19:12.376Z,12.27
2022-08-30T01:21:54.523Z,11.88
2022-08-30T01:24:23.887Z,11.90
2022-08-30T01:26:53.352Z,12.30
2022-08-30T01:29:25.113Z,12.52
2022-08-30T01:31:54.725Z,12.77
2022-08-30T01:34:24.256Z,13.85
2022-08-30T01:36:53.798Z,13.10
2022-08-30T01:39:24.648Z,15.30
2022-08-30T01:41:54.140Z,14.88
2022-08-30T01:44:23.493Z,14.27
2022-08-30T01:46:55.125Z,14.32
2022-08-30T01:49:27.674Z,14.47
2022-08-30T01:52:00.525Z,14.77
2022-08-30T01:54:33.282Z,16.27
2022-08-30T01:57:12.396Z,14.50
2022-08-30T01:59:48.857Z,17.30
2022-08-30T02:02:32.657Z,19.00
2022-08-30T02:05:02.077Z,17.30
2022-08-30T02:07:31.799Z,17.95
2022-08-30T02:10:01.410Z,16.95
2022-08-30T02:12:31.732Z,18.42
2022-08-30T02:15:01.941Z,17.23
2022-08-30T02:17:32.576Z,16.83
2022-08-30T02:20:01.940Z,16.77
2022-08-30T02:22:33.759Z,17.98
2022-08-30T02:25:03.291Z,18.33
2022-08-30T02:27:32.491Z,17.30
2022-08-30T02:30:01.793Z,17.58
2022-08-30T02:32:31.194Z,17.30
2022-08-30T02:35:00.569Z,16.73
2022-08-30T02:37:29.887Z,17.52
2022-08-30T02:39:59.209Z,18.27
2022-08-30T02:42:28.496Z,16.80
2022-08-30T02:44:58.200Z,16.67
2022-08-30T02:47:27.644Z,18.13
2022-08-30T02:49:57.093Z,17.17
2022-08-30T02:52:27.793Z,17.50
2022-08-30T02:54:57.319Z,17.30
2022-08-30T02:57:26.920Z,19.15
2022-08-30T02:59:56.279Z,17.80
2022-08-30T03:02:27.164Z,18.98
2022-08-30T03:04:56.837Z,20.23
2022-08-30T03:07:26.155Z,20.20
2022-08-30T03:09:55.618Z,19.00
2022-08-30T03:12:28.832Z,20.15
2022-08-30T03:14:58.721Z,19.85
2022-08-30T03:17:28.192Z,20.70
2022-08-30T03:19:57.539Z,20.13
2022-08-30T03:22:27.215Z,20.35
2022-08-30T03:25:00.937Z,19.67
2022-08-30T03:27:31.360Z,21.38
2022-08-30T03:30:00.779Z,21.47
2022-08-30T03:32:30.102Z,21.58
2022-08-30T03:35:02.154Z,21.65
2022-08-30T03:37:31.435Z,23.65
2022-08-30T03:40:04.766Z,24.17
2022-08-30T03:42:36.487Z,21.13
2022-08-30T03:45:08.199Z,22.27
2022-08-30T03:47:37.581Z,23.02
2022-08-30T03:50:10.943Z,24.38
2022-08-30T03:52:41.314Z,23.35
2022-08-30T03:55:10.961Z,23.30
2022-08-30T03:57:43.655Z,22.98
2022-08-30T04:00:14.690Z,23.67
2022-08-30T04:02:44.442Z,22.45
2022-08-30T04:05:14.846Z,23.52
2022-08-30T04:07:49.256Z,22.20
2022-08-30T04:10:18.817Z,21.48
2022-08-30T04:12:49.907Z,22.23
2022-08-30T04:15:22.516Z,23.52
2022-08-30T04:17:51.999Z,24.23
2022-08-30T04:20:22.532Z,23.70
2022-08-30T04:22:52.812Z,23.63
2022-08-30T04:25:22.205Z,24.05
2022-08-30T04:27:59.465Z,24.13
2022-08-30T04:30:28.875Z,23.25
2022-08-30T04:32:58.917Z,24.43
2022-08-30T04:35:33.611Z,22.05
2022-08-30T04:38:03.682Z,23.90
2022-08-30T04:40:34.504Z,23.83
2022-08-30T04:43:05.646Z,24.20
2022-08-30T04:45:35.073Z,23.33
2022-08-30T04:48:04.720Z,25.45
2022-08-30T04:50:34.391Z,24.83
2022-08-30T04:53:03.681Z,24.95
2022-08-30T04:55:33.087Z,25.33
2022-08-30T04:58:03.514Z,24.03
2022-08-30T05:00:38.706Z,26.05
2022-08-30T05:03:08.150Z,26.75
2022-08-30T05:05:46.721Z,26.92
2022-08-30T05:08:23.245Z,26.75
2022-08-30T05:10:54.514Z,26.63
2022-08-30T05:13:26.277Z,27.20
2022-08-30T05:16:06.497Z,28.45
2022-08-30T05:18:39.615Z,28.95
2022-08-30T05:21:38.179Z,31.08
2022-08-30T05:24:08.192Z,31.10
2022-08-30T05:26:41.954Z,29.50
2022-08-30T05:29:11.353Z,29.90
2022-08-30T05:31:42.241Z,32.67
2022-08-30T05:34:12.047Z,29.95
2022-08-30T05:36:44.571Z,31.00
2022-08-30T05:39:13.891Z,31.30
2022-08-30T05:41:44.455Z,33.65
2022-08-30T05:44:21.907Z,35.75
2022-08-30T05:46:54.064Z,47.60
2022-08-30T05:49:23.538Z,45.10
2022-08-30T05:51:52.789Z,48.92
2022-08-30T05:54:22.091Z,50.17
2022-08-30T05:56:51.432Z,56.50
2022-08-30T05:59:23.050Z,61.30
2022-08-30T06:01:55.511Z,63.97
2022-08-30T06:04:24.986Z,60.45
2022-08-30T06:06:56.037Z,68.10
2022-08-30T06:09:25.474Z,67.25
2022-08-30T06:11:56.530Z,70.80
2022-08-30T06:14:26.491Z,68.10
2022-08-30T06:16:56.025Z,72.57
2022-08-30T06:19:25.404Z,71.70
2022-08-30T06:21:54.877Z,74.65
2022-08-30T06:24:35.716Z,72.78
2022-08-30T06:27:13.868Z,70.60
2022-08-30T06:29:43.093Z,77.43
2022-08-30T06:32:12.373Z,76.32
2022-08-30T06:34:45.205Z,73.15
2022-08-30T06:37:29.140Z,74.43
2022-08-30T06:40:00.590Z,73.57
2022-08-30T06:42:33.340Z,79.88
2022-08-30T06:45:10.423Z,80.95
2022-08-30T06:47:42.073Z,74.00
2022-08-30T06:50:17.375Z,73.57
2022-08-30T06:52:47.556Z,74.33
2022-08-30T06:55:23.373Z,76.38
2022-08-30T06:57:54.271Z,78.43
2022-08-30T07:00:26.994Z,75.53
2022-08-30T07:02:59.579Z,75.55
2022-08-30T07:05:31.443Z,75.70
2022-08-30T07:08:00.716Z,71.63
2022-08-30T07:10:30.540Z,75.97
2022-08-30T07:13:01.508Z,74.47
2022-08-30T07:15:31.011Z,73.05
2022-08-30T07:18:25.434Z,69.07
2022-08-30T07:20:55.265Z,70.85
2022-08-30T07:23:24.988Z,70.20
2022-08-30T07:25:54.397Z,68.20
2022-08-30T07:28:23.928Z,72.22
2022-08-30T07:30:56.055Z,68.40
2022-08-30T07:33:25.483Z,67.82
2022-08-30T07:35:54.833Z,68.90
2022-08-30T07:38:24.384Z,66.90
2022-08-30T07:40:56.002Z,65.65
2022-08-30T07:43:26.548Z,62.87
2022-08-30T07:45:59.342Z,65.18
2022-08-30T07:48:28.680Z,58.55
2022-08-30T07:51:04.568Z,60.75
2022-08-30T07:53:37.154Z,58.85
2022-08-30T07:56:06.615Z,58.77
2022-08-30T07:58:36.407Z,60.95
2022-08-30T08:01:07.590Z,57.67
2022-08-30T08:03:36.830Z,56.78
2022-08-30T08:06:08.229Z,56.65
2022-08-30T08:08:40.244Z,51.00
2022-08-30T08:11:18.986Z,52.65
2022-08-30T08:13:53.982Z,55.10
2022-08-30T08:16:27.490Z,54.03
2022-08-30T08:18:57.580Z,50.08
2022-08-30T08:21:27.781Z,51.67
2022-08-30T08:23:57.903Z,49.00
2022-08-30T08:26:28.916Z,48.65
2022-08-30T08:28:59.577Z,49.80
2022-08-30T08:31:33.387Z,45.70
2022-08-30T08:34:05.998Z,46.97
2022-08-30T08:36:36.942Z,41.35
2022-08-30T08:39:08.573Z,45.90
2022-08-30T08:42:21.766Z,45.58
2022-08-30T08:44:54.802Z,43.20
2022-08-30T08:47:32.400Z,40.23
2022-08-30T08:50:04.663Z,38.60
2022-08-30T08:53:07.883Z,41.67
2022-08-30T08:55:38.760Z,41.42
2022-08-30T08:58:10.886Z,37.72
2022-08-30T09:00:41.485Z,42.77
2022-08-30T09:03:12.859Z,38.42
2022-08-30T09:05:42.971Z,38.00
2022-08-30T09:08:16.431Z,37.47
2022-08-30T09:11:03.456Z,37.13
2022-08-30T09:13:32.798Z,37.13
2022-08-30T09:16:02.615Z,38.65
2022-08-30T09:18:52.698Z,37.10
2022-08-30T09:21:26.889Z,36.65
2022-08-30T09:24:01.830Z,31.33
2022-08-30T09:26:38.916Z,30.13
2022-08-30T09:29:10.544Z,33.15
2022-08-30T09:32:16.158Z,36.33
2022-08-30T09:34:45.995Z,32.85
2022-08-30T09:37:31.340Z,32.95
2022-08-30T09:40:00.983Z,29.77
2022-08-30T09:42:32.463Z,30.40
2022-08-30T09:45:14.322Z,30.67
2022-08-30T09:47:45.538Z,28.08
2022-08-30T09:50:24.476Z,30.95
2022-08-30T09:53:19.895Z,30.30
2022-08-30T09:56:06.212Z,29.67
2022-08-30T09:58:59.450Z,27.75
2022-08-30T10:01:55.602Z,27.38
2022-08-30T10:04:52.099Z,27.33
2022-08-30T10:07:28.913Z,27.87
2022-08-30T10:10:12.879Z,26.45
2022-08-30T10:12:47.904Z,27.05
2022-08-30T10:15:51.154Z,26.63
2022-08-30T10:18:47.637Z,28.77
2022-08-30T10:21:40.020Z,27.13
2022-08-30T10:24:33.370Z,26.75
2022-08-30T10:27:13.119Z,25.45
2022-08-30T10:30:15.513Z,23.05
2022-08-30T10:32:56.854Z,21.20
2022-08-30T10:35:58.306Z,26.90
2022-08-30T10:38:36.672Z,24.75
2022-08-30T10:41:15.682Z,25.00
2022-08-30T10:44:17.503Z,22.80
2022-08-30T10:47:23.396Z,21.38
2022-08-30T10:49:58.005Z,23.43
2022-08-30T10:52:33.516Z,22.60
2022-08-30T10:55:20.012Z,23.50
2022-08-30T10:57:49.677Z,23.13
2022-08-30T11:00:45.268Z,21.48
2022-08-30T11:03:29.987Z,20.63
2022-08-30T11:06:29.413Z,20.40
2022-08-30T11:09:18.028Z,21.52
2022-08-30T11:11:56.606Z,23.95
2022-08-30T11:14:28.211Z,21.52
2022-08-30T11:16:59.101Z,20.43
2022-08-30T11:19:40.816Z,18.92
2022-08-30T11:22:28.164Z,22.00
2022-08-30T11:25:10.175Z,21.83
2022-08-30T11:27:52.247Z,19.88
2022-08-30T11:30:28.140Z,21.47
2022-08-30T11:33:08.405Z,19.98
2022-08-30T11:35:53.907Z,21.45
2022-08-30T11:38:32.065Z,18.52
2022-08-30T11:41:15.427Z,20.23
2022-08-30T11:43:44.898Z,21.93
2022-08-30T11:46:20.451Z,19.58
2022-08-30T11:49:08.164Z,18.92
2022-08-30T11:55:01.328Z,19.80
2022-08-30T11:57:33.567Z,18.27
2022-08-30T12:00:34.225Z,21.55
2022-08-30T12:03:09.874Z,16.20
2022-08-30T12:05:42.421Z,17.75
2022-08-30T12:08:13.744Z,19.00
2022-08-30T12:10:52.085Z,19.83
2022-08-30T12:13:39.777Z,17.63
2022-08-30T12:16:13.093Z,17.92
2022-08-30T12:18:47.982Z,15.63
2022-08-30T12:21:21.451Z,20.85
2022-08-30T12:23:54.942Z,13.57
2022-08-30T12:26:28.329Z,17.20
2022-08-30T12:29:25.345Z,21.48
2022-08-30T12:32:20.469Z,15.32
2022-08-30T12:35:02.401Z,14.73
2022-08-30T12:37:38.534Z,16.47
2022-08-30T12:40:21.921Z,16.73
2022-08-30T12:43:05.549Z,18.30
2022-08-30T12:45:50.981Z,18.55
2022-08-30T12:48:21.918Z,17.50
2022-08-30T12:51:01.881Z,17.50
2022-08-30T12:53:41.947Z,16.38
2022-08-30T12:56:49.567Z,20.17
2022-08-30T12:59:56.762Z,15.63
2022-08-30T13:02:46.639Z,17.17
2022-08-30T13:05:44.350Z,15.17
2022-08-30T13:08:23.106Z,15.13
2022-08-30T13:10:58.162Z,13.50
2022-08-30T13:13:34.564Z,13.48
2022-08-30T13:16:39.509Z,17.33
